Plessis, New York
Current Conditions -  °F | °C
As of 8:58 PM on Saturday 25 Oct 2014 (Local Time) from KGTB Reporting Station
Scattered Clouds Scattered Clouds  
Wind Chill: 52°   Ceiling: Unl
Heat Index: 52°   Visibility: 7mi
Dew Point: 51°   Wind: 10mph
Humidity: 99%   Direction: 240°WSW
Pressure: 29.53"   Gusts: NA
Location:  44.27°N, 75.85°W
Report Text: KGTB 260058Z AUTO 24009KT 7SM SCT060 11/11 A2953 RMK AO2 SLP002 T01090108
Loading
Personal Weather Stations






























Interactive Weather Map
Tropical Storm Tracking
New forecast layout! Learn more

10-Day Weather Forecast

Advertisements
Track Severe Weather on mobile